x

East Scotia Slope (44137) Wave Buoy

2:00am - Mon 22nd Dec 2014 All times are EST. -5 hours from GMT.

  • Sig Wave height 5.9ft
  • Peak Period 9s
  • Wind
    13mph, 18mph gusts
  • Sea Temp 50°f
  • Air Temp 45°f
  • Sea Pressure 1025.4mb
  • East Scotia Slope
  • East Scotia Slope

More Historic Weather Station data

Upgrade to MSW Pro to gain access to the past 30 days of data for over 8000 Wavebouys and Weather Stations around the globe.

Join Pro

Comparision Forecast

View Surf forecast
   
Mon 12/22 2:00am 6ft 9s 13 18 mph 1025.4mb 50f 45f
1:00am 6ft 9s 16 18 mph 1025.4mb 51f 44f
12:00am 6ft 8s 16 20 mph 1025.3mb 51f 44f
Sun 12/21 11:00pm 7ft 9s 18 22 mph 1024.9mb 50f 44f
10:00pm 6ft 8s 22 25 mph 1024.6mb 50f 45f
9:00pm 6.5ft 8s 20 25 mph 1025.1mb 50f 45f
8:00pm 6ft 8s 22 25 mph 1025mb 50f 45f
7:00pm 6.5ft 7s 22 27 mph 1024.6mb 51f 45f
6:00pm 6.5ft 8s 20 25 mph 1024.6mb 51f 45f
5:00pm 6.5ft 8s 20 22 mph 1024.2mb 51f 46f
4:00pm 6ft 8s 22 25 mph 1023.7mb 51f 45f
3:00pm 6ft 8s 18 25 mph 1023.7mb 51f 45f
2:00pm 5.5ft 9s 18 22 mph 1023.4mb 51f 46f
1:00pm 5.5ft 9s 16 20 mph 1023.4mb 52f 46f
12:00pm 5.5ft 8s 16 18 mph 1023.4mb 53f 46f
11:00am 5.5ft 8s 13 16 mph 1023.9mb 53f 46f
10:00am 6ft 7s 16 18 mph 1024.3mb 52f 46f
9:00am 5.5ft 7s 16 18 mph 1024.7mb 50f 45f
8:00am 5.5ft 6s 18 22 mph 1024mb 49f 45f
7:00am 6ft 7s 18 22 mph 1023.3mb 49f 45f
6:00am 6ft 7s 18 22 mph 1023.1mb 48f 45f
5:00am 6ft 7s 16 18 mph 1023.3mb 48f 45f
4:00am  -   -  18
mph
- - -
3:00am 7ft 8s 18 20 mph 1022.6mb 48f 45f
2:00am 7ft 8s 18 22 mph 1022.6mb 48f 46f
1:00am 7ft 8s 18 22 mph 1021.9mb 48f 46f
12:00am 7ft 8s 22 29 mph 1021.3mb 48f 46f
Sat 12/20 11:00pm 7ft 8s 20 25 mph 1021.4mb 48f 46f
10:00pm 6.5ft 9s 20 22 mph 1021.5mb 48f 46f
9:00pm 6ft 8s 18 22 mph 1021.2mb 49f 46f
8:00pm 7ft 8s 18 22 mph 1020.9mb 49f 46f
7:00pm 7ft 8s 20 22 mph 1020.7mb 50f 45f
6:00pm 7.5ft 8s 18 25 mph 1020.2mb 51f 44f
5:00pm 8ft 7s 18 22 mph 1019.5mb 50f 45f
4:00pm 8ft 8s 22 27 mph 1018.8mb 49f 45f
3:00pm 8ft 8s 18 25 mph 1018.5mb 49f 44f
2:00pm 7ft 7s 20 27 mph 1018.3mb 49f 44f
1:00pm 7ft 7s 20 27 mph 1018.1mb 49f 43f
12:00pm 7ft 7s 20 25 mph 1017.9mb 49f 43f
11:00am 7ft 7s 18 25 mph 1018mb 49f 43f
10:00am 7ft 7s 22 27 mph 1018.2mb 49f 42f
9:00am 7ft 7s 16 20 mph 1017.9mb 49f 42f
8:00am 7ft 6s 22 27 mph 1017.1mb 49f 42f
7:00am 7ft 6s 20 25 mph 1016.3mb 49f 42f
6:00am 6.5ft 9s 22 27 mph 1015.5mb 50f 42f
5:00am 7ft 9s 16 22 mph 1014.6mb 50f 42f
4:00am 7ft 10s 18 25 mph 1013.9mb 50f 41f
3:00am 7ft 9s 20 25 mph 1013.5mb 50f 41f
2:00am 7ft 10s 18 20 mph 1013.2mb 50f 42f
1:00am 7.5ft 10s 16 22 mph 1013mb 50f 41f
12:00am 7.5ft 10s 16 20 mph 1012.4mb 50f 42f
Fri 12/19 11:00pm 7.5ft 10s 16 20 mph 1012mb 50f 42f
10:00pm 8ft 11s 18 22 mph 1011.8mb 50f 42f
9:00pm 8ft 10s 13 18 mph 1011.5mb 50f 42f
8:00pm 8ft 10s 13 20 mph 1011mb 50f 42f
7:00pm 8ft 10s 18 22 mph 1010.6mb 51f 42f
6:00pm 8ft 11s 18 22 mph 1010mb 51f 42f
5:00pm 9ft 10s 18 25 mph 1009.1mb 51f 42f
4:00pm 9.5ft 10s 20 25 mph 1008.5mb 52f 42f
3:00pm 10ft 10s 22 27 mph 1008mb 53f 42f
2:00pm 12ft 10s 25 31 mph 1007.2mb 53f 43f
1:00pm 12ft 11s 25 29 mph 1006.8mb 53f 42f
12:00pm 13ft 10s 27 31 mph 1006.7mb 53f 43f
11:00am 14ft 10s 27 34 mph 1006.9mb 53f 44f
9:00am 15ft 11s 25 31 mph 1007.1mb 53f 44f
8:00am 14ft 11s 27 34 mph 1006.4mb 53f 44f
7:00am 15.5ft 11s 27 36 mph 1005.7mb 53f 44f
6:00am 14ft 12s 29 36 mph 1005.1mb 53f 44f
5:00am 15.5ft 11s 34 40 mph 1004.5mb 53f 44f
4:00am 15.5ft 11s 31 38 mph 1004.2mb 52f 45f
3:00am 14.5ft 11s 34 38 mph 1003.9mb 53f 45f
2:00am 14.5ft 11s 31 36 mph 1003.8mb 54f 45f
1:00am 14ft 11s 29 34 mph 1003.6mb 53f 45f
12:00am 15.5ft 11s 29 36 mph 1002.8mb 53f 45f
Thu 12/18 10:00pm 13ft 10s 31 38 mph 1002.7mb 52f 46f
9:00pm 13ft 11s 29 36 mph 1002.5mb 52f 46f
8:00pm 12.5ft 10s 27 34 mph 1002.2mb 53f 46f
7:00pm 12ft 10s 31 36 mph 1001.7mb 52f 46f
6:00pm 12ft 10s 29 34 mph 1000.8mb 52f 48f
5:00pm 11.5ft 10s 22 25 mph 1000.6mb 52f 48f
4:00pm 12ft 9s 20 27 mph 1000.8mb 52f 47f
3:00pm 12ft 10s 18 31 mph 1001.2mb 52f 47f
2:00pm 11ft 10s 11 13 mph 1000.9mb 52f 47f
1:00pm 12ft 10s 11 18 mph 1001.4mb 53f 48f
12:00pm 12.5ft 10s 7 9 mph 1001.5mb 53f 49f
11:00am 12.5ft 10s 9 11 mph 1002.8mb 53f 50f
10:00am 11ft 9s 9 13 mph 1003.7mb 53f 51f
9:00am 10.5ft 8s 18 20 mph 1004.2mb 52f 53f